Capivari, Brazil
Current Conditions -  °F | °C
As of 10:00 AM on Thursday 27 Nov 2014 (Local Time) from SBKP Reporting Station
Broken Clouds Broken Clouds  
Wind Chill: 73°   Ceiling: 1000
Heat Index: 73°   Visibility: 6mi
Dew Point: 68°   Wind: 6mph
Humidity: 83%   Direction: 180°S
Pressure: 29.97"   Gusts: NA
Location:  23°S, 47.51°W
Report Text: SBKP 271200Z 18005KT 9999 BKN010 BKN025 BKN070 23/20 Q1015
Loading
Personal Weather Stations






























Interactive Weather Map New forecast layout! Learn more

10-Day Weather Forecast

Advertisements
Track Severe Weather on mobile